createdAt,value
2022-09-17T00:04:15.883Z,1.47
2022-09-17T00:09:13.930Z,1.50
2022-09-17T00:14:16.293Z,1.63
2022-09-17T00:19:17.829Z,1.57
2022-09-17T00:24:17.021Z,1.20
2022-09-17T00:29:15.532Z,1.33
2022-09-17T00:34:14.895Z,1.70
2022-09-17T00:39:15.617Z,1.47
2022-09-17T00:44:53.393Z,1.50
2022-09-17T00:50:01.604Z,1.40
2022-09-17T00:55:05.119Z,1.40
2022-09-17T01:00:03.696Z,1.37
2022-09-17T01:05:03.151Z,1.33
2022-09-17T01:10:09.270Z,1.17
2022-09-17T01:15:18.828Z,1.30
2022-09-17T01:20:42.041Z,1.80
2022-09-17T01:25:54.157Z,1.30
2022-09-17T01:31:29.706Z,1.27
2022-09-17T01:36:39.829Z,1.77
2022-09-17T01:41:44.535Z,1.47
2022-09-17T01:46:49.898Z,1.33
2022-09-17T01:51:50.718Z,1.40
2022-09-17T01:56:55.351Z,1.50
2022-09-17T02:01:57.363Z,1.70
2022-09-17T02:07:00.268Z,1.50
2022-09-17T02:12:03.710Z,1.20
2022-09-17T02:17:08.029Z,1.60
2022-09-17T02:22:15.970Z,2.10
2022-09-17T02:27:22.716Z,2.13
2022-09-17T02:32:22.032Z,1.40
2022-09-17T02:37:20.296Z,1.57
2022-09-17T02:42:25.548Z,1.60
2022-09-17T02:47:53.674Z,2.20
2022-09-17T02:53:06.754Z,1.80
2022-09-17T02:58:15.600Z,2.10
2022-09-17T03:03:20.929Z,2.03
2022-09-17T03:08:20.279Z,1.80
2022-09-17T03:13:18.459Z,1.60
2022-09-17T03:18:17.777Z,1.80
2022-09-17T03:23:16.539Z,1.20
2022-09-17T03:28:14.552Z,1.20
2022-09-17T03:33:12.646Z,1.20
2022-09-17T03:38:12.108Z,1.60
2022-09-17T03:43:12.250Z,1.60
2022-09-17T03:48:10.274Z,1.60
2022-09-17T03:53:08.459Z,1.50
2022-09-17T03:58:07.854Z,1.47
2022-09-17T04:03:06.226Z,1.60
2022-09-17T04:08:04.233Z,1.40
2022-09-17T04:13:02.344Z,1.20
2022-09-17T04:18:01.698Z,1.63
2022-09-17T04:22:59.873Z,1.33
2022-09-17T04:27:57.977Z,1.40
2022-09-17T04:32:56.037Z,2.03
2022-09-17T04:37:56.532Z,1.77
2022-09-17T04:42:54.946Z,1.33
2022-09-17T04:47:53.157Z,1.50
2022-09-17T04:52:51.111Z,1.50
2022-09-17T04:57:53.008Z,1.63
2022-09-17T05:02:52.466Z,1.57
2022-09-17T05:07:50.732Z,1.83
2022-09-17T05:12:50.772Z,1.37
2022-09-17T05:17:49.056Z,1.50
2022-09-17T05:22:48.466Z,2.37
2022-09-17T05:27:46.525Z,1.70
2022-09-17T05:32:45.821Z,1.50
2022-09-17T05:37:43.865Z,2.10
2022-09-17T05:42:41.811Z,1.87
2022-09-17T05:47:39.740Z,1.87
2022-09-17T05:52:39.013Z,1.53
2022-09-17T05:57:36.955Z,1.53
2022-09-17T06:02:34.946Z,2.50
2022-09-17T06:07:33.155Z,2.67
2022-09-17T06:12:32.496Z,3.03
2022-09-17T06:17:33.446Z,2.33
2022-09-17T06:22:31.411Z,2.17
2022-09-17T06:27:33.776Z,3.10
2022-09-17T06:32:31.865Z,2.83
2022-09-17T06:37:30.917Z,2.87
2022-09-17T06:42:29.500Z,3.40
2022-09-17T06:47:28.891Z,2.70
2022-09-17T06:52:27.197Z,3.40
2022-09-17T06:57:25.291Z,2.83
2022-09-17T07:02:23.272Z,2.50
2022-09-17T07:07:22.577Z,2.43
2022-09-17T07:12:20.550Z,2.40
2022-09-17T07:17:18.512Z,2.70
2022-09-17T07:22:16.530Z,2.00
2022-09-17T07:27:15.996Z,2.00
2022-09-17T07:32:14.008Z,2.50
2022-09-17T07:37:11.964Z,2.17
2022-09-17T07:42:09.974Z,3.50
2022-09-17T07:47:09.991Z,3.20
2022-09-17T07:52:07.919Z,2.60
2022-09-17T07:57:06.464Z,1.93
2022-09-17T08:02:04.673Z,2.20
2022-09-17T08:07:04.053Z,3.00
2022-09-17T08:12:02.128Z,2.00
2022-09-17T08:17:00.058Z,2.20
2022-09-17T08:21:58.297Z,2.90
2022-09-17T08:26:57.615Z,3.10
2022-09-17T08:31:55.532Z,2.70
2022-09-17T08:36:53.443Z,2.63
2022-09-17T08:41:57.198Z,2.67
2022-09-17T08:47:01.581Z,1.53
2022-09-17T08:52:27.512Z,2.57
2022-09-17T08:57:32.540Z,2.60
2022-09-17T09:02:46.190Z,2.47
2022-09-17T09:07:48.615Z,2.30
2022-09-17T09:12:48.160Z,2.40
2022-09-17T09:17:51.015Z,4.50
2022-09-17T09:22:51.935Z,2.23
2022-09-17T09:28:02.039Z,2.70
2022-09-17T09:33:05.289Z,3.40
2022-09-17T09:38:13.758Z,2.47
2022-09-17T09:43:18.177Z,2.53
2022-09-17T09:48:28.383Z,1.83
2022-09-17T09:53:34.599Z,2.03
2022-09-17T09:58:36.707Z,2.20
2022-09-17T10:03:41.345Z,1.70
2022-09-17T10:08:41.366Z,1.83
2022-09-17T10:13:39.641Z,2.17
2022-09-17T10:18:38.942Z,1.73
2022-09-17T10:23:39.556Z,2.37
2022-09-17T10:28:47.801Z,2.20
2022-09-17T10:33:58.747Z,2.27
2022-09-17T10:38:56.657Z,1.90
2022-09-17T10:43:54.593Z,2.13
2022-09-17T10:49:06.895Z,1.63
2022-09-17T10:54:29.322Z,2.63
2022-09-17T10:59:59.597Z,2.30
2022-09-17T11:05:08.844Z,1.80
2022-09-17T11:10:14.730Z,1.87
2022-09-17T11:15:26.910Z,1.60
2022-09-17T11:20:38.006Z,1.80
2022-09-17T11:25:56.095Z,1.60
2022-09-17T11:31:10.972Z,2.33
2022-09-17T11:36:14.867Z,1.60
2022-09-17T11:41:16.570Z,1.90
2022-09-17T11:46:19.451Z,1.50
2022-09-17T11:51:27.751Z,1.43
2022-09-17T11:56:30.969Z,1.10
2022-09-17T12:01:33.755Z,1.80
2022-09-17T12:06:41.077Z,1.40
2022-09-17T12:11:45.165Z,1.43
2022-09-17T12:16:46.008Z,1.27
2022-09-17T12:21:48.615Z,1.53
2022-09-17T12:27:09.941Z,0.97
2022-09-17T12:32:23.209Z,1.37
2022-09-17T12:37:30.322Z,1.43
2022-09-17T12:42:44.567Z,1.20
2022-09-17T12:48:30.985Z,1.30
2022-09-17T12:53:36.107Z,1.50
2022-09-17T12:58:58.596Z,1.30
2022-09-17T13:04:01.244Z,1.43
2022-09-17T13:09:28.974Z,1.50
2022-09-17T13:14:33.927Z,1.20
2022-09-17T13:19:38.011Z,1.30
2022-09-17T13:24:38.268Z,1.00
2022-09-17T13:29:59.141Z,1.30
2022-09-17T13:34:57.064Z,1.40
2022-09-17T13:39:56.511Z,1.17
2022-09-17T13:45:04.475Z,1.50
2022-09-17T13:50:05.671Z,1.10
2022-09-17T13:55:06.651Z,1.10
2022-09-17T14:00:05.338Z,1.90
2022-09-17T14:05:35.724Z,1.57
2022-09-17T14:10:42.969Z,1.40
2022-09-17T14:16:01.713Z,1.70
2022-09-17T14:21:07.550Z,1.90
2022-09-17T14:26:11.317Z,1.33
2022-09-17T14:31:17.674Z,1.63
2022-09-17T14:36:19.088Z,2.17
2022-09-17T14:41:25.159Z,2.00
2022-09-17T14:46:25.571Z,1.20
2022-09-17T14:51:26.965Z,2.00
2022-09-17T14:56:26.509Z,0.70
2022-09-17T15:01:25.814Z,0.60
2022-09-17T15:06:24.466Z,0.90
2022-09-17T15:11:22.511Z,0.73
2022-09-17T15:16:25.618Z,1.00
2022-09-17T15:21:33.086Z,0.70
2022-09-17T15:26:36.504Z,0.60
2022-09-17T15:31:36.768Z,0.80
2022-09-17T15:36:34.792Z,0.57
2022-09-17T15:41:34.609Z,0.60
2022-09-17T15:46:33.660Z,0.70
2022-09-17T15:51:35.460Z,0.70
2022-09-17T15:56:35.430Z,0.73
2022-09-17T16:01:52.841Z,0.80
2022-09-17T16:06:59.798Z,0.80
2022-09-17T16:11:58.018Z,0.83
2022-09-17T16:16:56.340Z,0.90
2022-09-17T16:21:55.629Z,0.87
2022-09-17T16:26:53.550Z,0.70
2022-09-17T16:31:52.896Z,0.73
2022-09-17T16:36:51.785Z,1.07
2022-09-17T16:41:51.286Z,0.80
2022-09-17T16:46:49.473Z,0.70
2022-09-17T16:51:47.520Z,0.60
2022-09-17T16:56:45.500Z,0.90
2022-09-17T17:01:45.041Z,0.77
2022-09-17T17:06:43.196Z,0.60
2022-09-17T17:11:41.319Z,0.80
2022-09-17T17:16:40.871Z,0.70
2022-09-17T17:21:43.986Z,1.03
2022-09-17T17:26:44.502Z,0.90
2022-09-17T17:31:42.590Z,1.10
2022-09-17T17:36:42.221Z,1.23
2022-09-17T17:41:40.154Z,0.97
2022-09-17T17:46:38.285Z,0.90
2022-09-17T17:51:36.424Z,0.80
2022-09-17T17:56:35.793Z,1.17
2022-09-17T18:01:35.121Z,1.10
2022-09-17T18:06:33.292Z,1.30
2022-09-17T18:11:31.824Z,0.87
2022-09-17T18:16:31.585Z,1.00
2022-09-17T18:21:29.923Z,1.30
2022-09-17T18:26:29.836Z,1.40
2022-09-17T18:31:29.200Z,1.23
2022-09-17T18:36:31.327Z,0.90
2022-09-17T18:41:30.154Z,1.00
2022-09-17T18:46:28.530Z,1.13
2022-09-17T18:51:29.017Z,1.00
2022-09-17T18:56:29.739Z,1.20
2022-09-17T19:01:29.268Z,1.77
2022-09-17T19:06:29.515Z,1.13
2022-09-17T19:11:27.688Z,1.20
2022-09-17T19:16:25.813Z,1.53
2022-09-17T19:21:24.018Z,1.20
2022-09-17T19:26:25.316Z,1.50
2022-09-17T19:31:23.605Z,1.23
2022-09-17T19:36:22.354Z,1.60
2022-09-17T19:41:23.073Z,1.60
2022-09-17T19:46:26.747Z,1.57
2022-09-17T19:51:26.721Z,1.50
2022-09-17T19:56:28.174Z,1.60
2022-09-17T20:01:27.629Z,2.10
2022-09-17T20:06:25.589Z,1.90
2022-09-17T20:11:25.417Z,1.70
2022-09-17T20:16:23.675Z,2.27
2022-09-17T20:21:25.831Z,2.30
2022-09-17T20:26:25.089Z,2.43
2022-09-17T20:31:24.929Z,1.93
2022-09-17T20:36:27.084Z,2.10
2022-09-17T20:41:25.198Z,2.27
2022-09-17T20:46:28.917Z,2.80
2022-09-17T20:51:30.632Z,2.17
2022-09-17T20:56:30.363Z,2.43
2022-09-17T21:01:32.682Z,1.97
2022-09-17T21:06:33.992Z,2.07
2022-09-17T21:11:32.235Z,1.97
2022-09-17T21:16:34.722Z,2.33
2022-09-17T21:21:36.396Z,2.30
2022-09-17T21:26:38.038Z,3.30
2022-09-17T21:31:37.610Z,1.97
2022-09-17T21:36:38.913Z,2.30
2022-09-17T21:41:42.120Z,1.87
2022-09-17T21:46:42.001Z,2.43
2022-09-17T21:51:42.753Z,2.27
2022-09-17T21:56:40.924Z,1.97
2022-09-17T22:01:41.068Z,1.70
2022-09-17T22:06:39.257Z,1.90
2022-09-17T22:11:39.182Z,2.10
2022-09-17T22:16:39.320Z,1.70
2022-09-17T22:21:38.830Z,1.73
2022-09-17T22:26:40.978Z,1.83
2022-09-17T22:31:39.229Z,2.23
2022-09-17T22:36:37.649Z,1.73
2022-09-17T22:41:42.810Z,2.20
2022-09-17T22:46:41.489Z,2.03
2022-09-17T22:51:41.235Z,2.33
2022-09-17T22:56:40.891Z,2.10
2022-09-17T23:01:40.723Z,2.03
2022-09-17T23:06:41.869Z,2.40
2022-09-17T23:11:41.423Z,2.67
2022-09-17T23:16:41.953Z,1.97
2022-09-17T23:21:40.705Z,2.03
2022-09-17T23:26:38.671Z,1.60
2022-09-17T23:31:37.956Z,1.83
2022-09-17T23:36:38.684Z,1.60
2022-09-17T23:41:38.342Z,1.90
2022-09-17T23:46:38.330Z,1.70
2022-09-17T23:51:37.579Z,1.97
2022-09-17T23:56:35.934Z,1.60
